Hurlburt Field, FL (32544)

4:12 PM CDT on August 30, 2015 (GMT -0500)
Parrish Point | | Change Station
CLOSE
Current Station
Personal Weather Station
Location: Mary Esther, FL
Elevation: 10 ft
Nearby Weather Stations

Elev 10 ft 30.41 °N, 86.75 °W | Updated 7 seconds ago

Clear
Clear
86.6 °F
Feels Like 93 °F
N
2.9
Wind Variable Wind from NNW
Gusts 2.9 mph

Today
High -- | Low -- °F
--% Chance of Precip.
Yesterday
High -- | Low -- °F
Precip. -- in
6:22 AM 7:12 PM
Full, 98% visible
Pressure 29.99 in
Visibility 10.0 miles
Clouds Clear
Heat Index 93 °F
Dew Point 72 °F
Humidity 63%
Rainfall 0.00 in
Snow Depth Not available.
UV 6 out of 12
Pollen 7.50 out of 12
Air Quality Not available.
Flu Activity Not available.
METAR KHRT 302058Z AUTO 23007KT 10SM CLR 30/21 A2998 RMK AO2 RAB51E52DZB52 SLP154 P0000 60000 T03040207 57020 $
Pressure 29.99 in
Visibility 10.0 miles
Clouds Clear
Heat Index 93 °F
Dew Point 72 °F
Humidity 63%
Rainfall 0.00 in
Snow Depth Not available.
UV 6 out of 12
Pollen 7.50 out of 12
Air Quality Not available.
Flu Activity Not available.
METAR KHRT 302058Z AUTO 23007KT 10SM CLR 30/21 A2998 RMK AO2 RAB51E52DZB52 SLP154 P0000 60000 T03040207 57020 $

10-Day Weather Forecast

×

Almanac

Astronomy

Aug. 30, 2015 Rise Set
Actual Time
Civil Twilight
Nautical Twilight
Astronomical Twilight
Moon
Length of Visible Light
Length of Day
Tomorrow will be .
, % of the Moon is Illuminated

Today's Extremes

State Highs State Lows

Community

WunderPhotos

Upload Photos

1,851,062 photos uploaded!

WunderBlogs® & News

Nearby

Air Quality

  Air Quality AQ Index Pollutant
Not available.

Snow Depth

Station Depth Elevation

Earthquake Activity

City Distance Mag. Time & Date
Minimum magnitude displayed is 2.5.

Coastal Water Temperatures

Place Temperature

Stations

Nearby Weather Stations

Station Location Temp. Windchill Dew Point Humidity Wind Precip. Elev Updated Type